Time;durP1;ratioP1;P1;durP2;ratioP2;P2;SDS_P1;SDS_P2;PMS_P1;PMS_P2;Temp;Humidity;BMP_temperature;BMP_pressure;BME280_temperature;BME280_humidity;BME280_pressure;Samples;Min_cycle;Max_cycle;Signal;HPM_P1;HPM_P2
2023/08/30 00:01:32;;;;;;;2.33;1.45;;;;;;;;;;4959797;28;20034;-65
2023/08/30 00:03:57;;;;;;;4.25;1.75;;;;;;;;;;4970385;28;20034;-65
2023/08/30 00:06:23;;;;;;;3.95;1.80;;;;;;;;;;4961089;28;20033;-65
2023/08/30 00:08:49;;;;;;;3.83;1.83;;;;;;;;;;4968755;28;20397;-65
2023/08/30 00:11:14;;;;;;;5.18;1.80;;;;;;;;;;4962241;28;20034;-65
2023/08/30 00:13:40;;;;;;;2.80;1.77;;;;;;;;;;4967509;28;20523;-65
2023/08/30 00:16:06;;;;;;;2.92;1.80;;;;;;;;;;4963606;28;20126;-65
2023/08/30 00:18:32;;;;;;;2.85;1.70;;;;;;;;;;4966595;28;20109;-64
2023/08/30 00:20:57;;;;;;;5.30;2.05;;;;;;;;;;4960409;28;20027;-65
2023/08/30 00:23:23;;;;;;;3.17;1.58;;;;;;;;;;4969247;28;20035;-65
2023/08/30 00:25:48;;;;;;;4.88;1.65;;;;;;;;;;4961682;28;20046;-65
2023/08/30 00:28:14;;;;;;;3.47;1.70;;;;;;;;;;4967562;28;20023;-65
2023/08/30 00:30:40;;;;;;;3.75;1.35;;;;;;;;;;4986622;28;20061;-65
2023/08/30 00:33:06;;;;;;;4.13;1.83;;;;;;;;;;4982790;28;20109;-65
2023/08/30 00:35:31;;;;;;;3.05;1.52;;;;;;;;;;4963903;28;20458;-65
2023/08/30 00:37:57;;;;;;;6.40;1.60;;;;;;;;;;4965155;28;20122;-65
2023/08/30 00:40:25;;;;;;;3.72;1.77;;;;;;;;;;4965005;28;20118;-65
2023/08/30 00:42:51;;;;;;;3.35;1.63;;;;;;;;;;4964178;28;20457;-65
2023/08/30 00:45:16;;;;;;;4.57;1.80;;;;;;;;;;4965713;28;20117;-65
2023/08/30 00:47:42;;;;;;;3.47;1.70;;;;;;;;;;4963048;28;20031;-65
2023/08/30 00:50:09;;;;;;;5.13;1.88;;;;;;;;;;4966820;28;20070;-65
2023/08/30 00:52:35;;;;;;;3.42;2.28;;;;;;;;;;4962072;28;20473;-65
2023/08/30 00:55:00;;;;;;;6.03;2.10;;;;;;;;;;4967989;28;20091;-65
2023/08/30 00:57:26;;;;;;;3.33;2.10;;;;;;;;;;4960345;28;20174;-65
2023/08/30 00:59:53;;;;;;;4.15;2.10;;;;;;;;;;4969082;28;20468;-65
2023/08/30 01:02:18;;;;;;;3.30;2.15;;;;;;;;;;4959590;28;20034;-65
2023/08/30 01:04:45;;;;;;;5.28;2.63;;;;;;;;;;4969723;28;20139;-65
2023/08/30 01:07:11;;;;;;;4.20;2.25;;;;;;;;;;4961808;28;20031;-65
2023/08/30 01:09:37;;;;;;;5.10;2.50;;;;;;;;;;4990536;28;20035;-65
2023/08/30 01:12:14;;;;;;;7.28;2.53;;;;;;;;;;4971291;28;20531;-65
2023/08/30 01:14:42;;;;;;;5.00;2.88;;;;;;;;;;4958206;28;20045;-65
2023/08/30 01:17:10;;;;;;;6.28;3.20;;;;;;;;;;4971033;28;20485;-65
2023/08/30 01:19:46;;;;;;;6.15;3.05;;;;;;;;;;4957665;28;20404;-65
2023/08/30 01:22:43;;;;;;;5.57;3.42;;;;;;;;;;4970584;28;20042;-65
2023/08/30 01:25:15;;;;;;;5.22;2.92;;;;;;;;;;4961395;28;20035;-65
2023/08/30 01:27:43;;;;;;;4.97;2.95;;;;;;;;;;4966610;28;20042;-65
2023/08/30 01:30:11;;;;;;;5.60;3.10;;;;;;;;;;4961476;28;20035;-65
2023/08/30 01:32:38;;;;;;;4.40;2.72;;;;;;;;;;4967280;28;20031;-65
2023/08/30 01:35:05;;;;;;;4.53;2.70;;;;;;;;;;4960751;28;20031;-65
2023/08/30 01:37:32;;;;;;;7.03;2.47;;;;;;;;;;4967922;28;20122;-65
2023/08/30 01:39:58;;;;;;;7.55;2.70;;;;;;;;;;4959504;28;20031;-65
2023/08/30 01:42:27;;;;;;;5.82;2.53;;;;;;;;;;4968976;28;20031;-65
2023/08/30 01:44:57;;;;;;;4.15;2.35;;;;;;;;;;4962919;28;20035;-65
2023/08/30 01:47:25;;;;;;;4.95;2.47;;;;;;;;;;4982272;28;20034;-65
2023/08/30 01:49:52;;;;;;;5.10;3.10;;;;;;;;;;4984763;28;20034;-65
2023/08/30 01:52:18;;;;;;;5.88;2.55;;;;;;;;;;4965863;28;20031;-65
2023/08/30 01:54:45;;;;;;;3.50;2.20;;;;;;;;;;4961335;28;20031;-65
2023/08/30 01:57:10;;;;;;;5.00;2.20;;;;;;;;;;4966746;28;20038;-65
2023/08/30 01:59:36;;;;;;;5.47;2.10;;;;;;;;;;4960516;28;20030;-65
2023/08/30 02:02:03;;;;;;;4.32;2.40;;;;;;;;;;4967890;28;20031;-65
2023/08/30 02:04:31;;;;;;;4.03;2.63;;;;;;;;;;4959371;28;20124;-65
2023/08/30 02:07:05;;;;;;;3.33;2.20;;;;;;;;;;4968653;28;20114;-65
2023/08/30 02:09:36;;;;;;;4.35;2.33;;;;;;;;;;4963107;28;20035;-65
2023/08/30 02:12:06;;;;;;;3.78;2.22;;;;;;;;;;4963815;28;20042;-65
2023/08/30 02:14:32;;;;;;;4.63;2.47;;;;;;;;;;4952711;29;20517;-65
2023/08/30 02:16:58;;;;;;;4.45;2.22;;;;;;;;;;4962927;28;20035;-65
2023/08/30 02:19:24;;;;;;;5.43;2.50;;;;;;;;;;4964992;28;20089;-65
2023/08/30 02:21:49;;;;;;;7.00;2.80;;;;;;;;;;4961651;28;20038;-65
2023/08/30 02:24:15;;;;;;;4.32;2.30;;;;;;;;;;4966102;28;20527;-65
2023/08/30 02:26:40;;;;;;;3.92;2.70;;;;;;;;;;4970615;28;20384;-65
2023/08/30 02:29:05;;;;;;;6.32;3.00;;;;;;;;;;4990652;28;20412;-65
2023/08/30 02:31:31;;;;;;;4.53;2.80;;;;;;;;;;4971751;28;20396;-65
2023/08/30 02:33:57;;;;;;;6.60;3.08;;;;;;;;;;4962012;28;20049;-65
2023/08/30 02:36:22;;;;;;;4.53;2.55;;;;;;;;;;4973156;28;20027;-65
2023/08/30 02:38:47;;;;;;;4.45;2.83;;;;;;;;;;4960763;28;20031;-65
2023/08/30 02:41:13;;;;;;;5.20;2.85;;;;;;;;;;4974251;28;20114;-65
2023/08/30 02:43:38;;;;;;;4.80;2.92;;;;;;;;;;4959294;28;20031;-65
2023/08/30 02:46:05;;;;;;;9.43;3.00;;;;;;;;;;4975244;28;20030;-65
2023/08/30 02:48:31;;;;;;;6.07;2.72;;;;;;;;;;4962067;28;20133;-65
2023/08/30 02:50:57;;;;;;;4.30;2.40;;;;;;;;;;4972294;28;20504;-65
2023/08/30 02:53:23;;;;;;;4.00;2.78;;;;;;;;;;4960777;28;20035;-65
2023/08/30 02:55:48;;;;;;;5.03;2.70;;;;;;;;;;4973461;28;20059;-65
2023/08/30 02:58:14;;;;;;;4.43;3.03;;;;;;;;;;4959462;28;20540;-65
2023/08/30 03:00:39;;;;;;;5.63;2.80;;;;;;;;;;4974543;28;20388;-65
2023/08/30 03:03:05;;;;;;;4.85;3.00;;;;;;;;;;4958302;28;20030;-65
2023/08/30 03:05:30;;;;;;;4.97;2.88;;;;;;;;;;4976607;28;20038;-65
2023/08/30 03:07:55;;;;;;;3.53;2.40;;;;;;;;;;4995832;28;20492;-64
2023/08/30 03:10:21;;;;;;;4.63;2.63;;;;;;;;;;4976376;28;20480;-65
2023/08/30 03:12:46;;;;;;;6.05;2.40;;;;;;;;;;4957364;28;20058;-65
2023/08/30 03:15:12;;;;;;;3.70;2.35;;;;;;;;;;4974864;28;20031;-65
2023/08/30 03:17:37;;;;;;;3.70;2.70;;;;;;;;;;4958889;28;20145;-65
2023/08/30 03:20:03;;;;;;;6.15;2.90;;;;;;;;;;4973696;28;20027;-65
2023/08/30 03:22:30;;;;;;;4.72;2.53;;;;;;;;;;4959995;28;20338;-65
2023/08/30 03:24:56;;;;;;;6.95;2.63;;;;;;;;;;4972476;28;20117;-65
2023/08/30 03:27:21;;;;;;;8.75;3.03;;;;;;;;;;4961196;28;20118;-65
2023/08/30 03:29:47;;;;;;;4.85;3.00;;;;;;;;;;4970945;28;20076;-64
2023/08/30 03:32:17;;;;;;;3.83;2.28;;;;;;;;;;4962082;28;20035;-65
2023/08/30 03:34:46;;;;;;;5.35;2.70;;;;;;;;;;4970476;28;20035;-65
2023/08/30 03:37:13;;;;;;;6.07;2.28;;;;;;;;;;4957686;28;20074;-65
2023/08/30 03:39:39;;;;;;;5.85;2.95;;;;;;;;;;4973244;28;20396;-65
2023/08/30 03:42:04;;;;;;;4.80;3.00;;;;;;;;;;4959097;28;20041;-65
2023/08/30 03:44:30;;;;;;;3.22;2.45;;;;;;;;;;4972285;28;20031;-65
2023/08/30 03:46:56;;;;;;;3.58;2.63;;;;;;;;;;4991107;28;20104;-65
2023/08/30 03:49:22;;;;;;;5.03;2.92;;;;;;;;;;4978783;28;20085;-65
2023/08/30 03:51:48;;;;;;;6.20;3.40;;;;;;;;;;4961241;28;20031;-65
2023/08/30 03:54:16;;;;;;;4.57;2.80;;;;;;;;;;4969697;28;20039;-65
2023/08/30 03:56:44;;;;;;;4.90;2.80;;;;;;;;;;4962106;28;20031;-65
2023/08/30 03:59:10;;;;;;;4.00;2.97;;;;;;;;;;4969157;28;20381;-65
2023/08/30 04:01:36;;;;;;;5.82;3.13;;;;;;;;;;4962897;28;20035;-65
2023/08/30 04:04:01;;;;;;;5.40;2.85;;;;;;;;;;4967324;28;20030;-65
2023/08/30 04:06:27;;;;;;;4.85;3.45;;;;;;;;;;4963981;28;20385;-65
2023/08/30 04:08:52;;;;;;;6.53;3.60;;;;;;;;;;4966610;28;20435;-65
2023/08/30 04:11:17;;;;;;;8.25;5.40;;;;;;;;;;4965055;28;20035;-65
2023/08/30 04:13:43;;;;;;;7.50;3.83;;;;;;;;;;4964849;28;20047;-65
2023/08/30 04:16:08;;;;;;;9.32;4.10;;;;;;;;;;4966365;28;20035;-65
2023/08/30 04:18:34;;;;;;;6.30;3.92;;;;;;;;;;4963496;28;20042;-65
2023/08/30 04:21:02;;;;;;;7.15;4.60;;;;;;;;;;4967870;28;20066;-65
2023/08/30 04:23:27;;;;;;;5.05;4.40;;;;;;;;;;4969614;28;20508;-65
2023/08/30 04:25:53;;;;;;;8.85;4.45;;;;;;;;;;4987518;28;20034;-65
2023/08/30 04:28:18;;;;;;;7.35;4.68;;;;;;;;;;4968861;28;20031;-65
2023/08/30 04:30:44;;;;;;;7.63;4.72;;;;;;;;;;4960715;28;20494;-65
2023/08/30 04:33:09;;;;;;;9.00;4.57;;;;;;;;;;4970032;28;20408;-64
2023/08/30 04:35:35;;;;;;;8.40;5.25;;;;;;;;;;4959229;28;20054;-65
2023/08/30 04:38:01;;;;;;;5.93;4.25;;;;;;;;;;4971392;28;20062;-65
2023/08/30 04:40:26;;;;;;;9.05;4.75;;;;;;;;;;4957904;28;20480;-65
2023/08/30 04:42:52;;;;;;;9.07;5.43;;;;;;;;;;4972175;28;20035;-65
2023/08/30 04:45:17;;;;;;;7.45;4.60;;;;;;;;;;4956599;28;20035;-65
2023/08/30 04:47:45;;;;;;;7.53;5.28;;;;;;;;;;4972541;28;20046;-65
2023/08/30 04:50:11;;;;;;;7.47;4.70;;;;;;;;;;4955699;28;20440;-65
2023/08/30 04:52:36;;;;;;;5.30;4.28;;;;;;;;;;4974741;28;20023;-65
2023/08/30 04:55:02;;;;;;;6.97;5.60;;;;;;;;;;4955106;28;20043;-65
2023/08/30 04:57:28;;;;;;;5.82;4.28;;;;;;;;;;4973761;28;20027;-65
2023/08/30 04:59:53;;;;;;;10.73;5.22;;;;;;;;;;4956207;28;20035;-65
2023/08/30 05:02:19;;;;;;;7.85;4.57;;;;;;;;;;4989729;28;20042;-65
2023/08/30 05:04:44;;;;;;;8.68;6.47;;;;;;;;;;4976451;28;20062;-65
2023/08/30 05:07:09;;;;;;;8.63;5.45;;;;;;;;;;4957986;28;20041;-65
2023/08/30 05:09:35;;;;;;;8.93;5.50;;;;;;;;;;4970385;28;20056;-65
2023/08/30 05:12:01;;;;;;;6.95;5.68;;;;;;;;;;4959221;28;20389;-65
2023/08/30 05:14:26;;;;;;;8.27;5.45;;;;;;;;;;4968818;28;20043;-65
2023/08/30 05:16:52;;;;;;;9.45;5.45;;;;;;;;;;4960117;28;20035;-65
2023/08/30 05:19:18;;;;;;;11.73;5.20;;;;;;;;;;4967619;28;20404;-65
2023/08/30 05:21:43;;;;;;;7.18;5.10;;;;;;;;;;4961568;28;20126;-65
2023/08/30 05:24:10;;;;;;;7.32;4.85;;;;;;;;;;4966268;28;20045;-65
2023/08/30 05:26:36;;;;;;;9.57;6.03;;;;;;;;;;4962569;28;20032;-65
2023/08/30 05:29:01;;;;;;;6.72;5.57;;;;;;;;;;4965022;28;20108;-65
2023/08/30 05:31:27;;;;;;;9.07;5.78;;;;;;;;;;4963395;28;20110;-65
2023/08/30 05:33:52;;;;;;;7.88;5.85;;;;;;;;;;4964010;28;20039;-65
2023/08/30 05:36:18;;;;;;;8.48;6.05;;;;;;;;;;4965220;28;20429;-65
2023/08/30 05:38:43;;;;;;;7.47;5.70;;;;;;;;;;4966339;28;20051;-65
2023/08/30 05:41:09;;;;;;;8.02;5.55;;;;;;;;;;4985185;28;20066;-65
2023/08/30 05:43:34;;;;;;;9.65;5.85;;;;;;;;;;4981439;28;20472;-65
2023/08/30 05:46:03;;;;;;;7.15;6.07;;;;;;;;;;4962854;28;20027;-65
2023/08/30 05:48:29;;;;;;;9.60;5.80;;;;;;;;;;4964424;28;20114;-65
2023/08/30 05:50:55;;;;;;;10.50;5.72;;;;;;;;;;4964124;28;20090;-65
2023/08/30 05:53:20;;;;;;;9.57;6.20;;;;;;;;;;4963270;28;20034;-65
2023/08/30 05:55:46;;;;;;;12.32;6.80;;;;;;;;;;4965375;28;20035;-65
2023/08/30 05:58:11;;;;;;;15.27;6.97;;;;;;;;;;4961680;28;20480;-65
2023/08/30 06:00:37;;;;;;;10.70;6.50;;;;;;;;;;4970211;28;20019;-65
2023/08/30 06:03:03;;;;;;;10.95;6.68;;;;;;;;;;4968597;28;20061;-65
2023/08/30 06:05:28;;;;;;;9.98;5.85;;;;;;;;;;4967412;28;20469;-65
2023/08/30 06:07:54;;;;;;;10.35;6.30;;;;;;;;;;4967211;28;20365;-65
2023/08/30 06:10:19;;;;;;;8.20;5.95;;;;;;;;;;4968834;28;20023;-65
2023/08/30 06:12:45;;;;;;;9.70;6.43;;;;;;;;;;4965952;28;20074;-65
2023/08/30 06:15:10;;;;;;;8.98;6.47;;;;;;;;;;4969735;28;20038;-65
2023/08/30 06:17:36;;;;;;;10.73;6.88;;;;;;;;;;4964491;28;20030;-65
2023/08/30 06:20:02;;;;;;;8.43;6.03;;;;;;;;;;4983132;28;20037;-65
2023/08/30 06:22:27;;;;;;;8.48;5.95;;;;;;;;;;4991110;28;20118;-65
2023/08/30 06:24:53;;;;;;;11.63;6.10;;;;;;;;;;4972267;28;20122;-65
2023/08/30 06:27:18;;;;;;;10.77;5.95;;;;;;;;;;4961738;28;20398;-65
2023/08/30 06:29:43;;;;;;;10.15;7.18;;;;;;;;;;4973607;28;20036;-65
2023/08/30 06:32:09;;;;;;;11.80;6.32;;;;;;;;;;4960419;28;20031;-65
2023/08/30 06:34:34;;;;;;;10.57;6.00;;;;;;;;;;4974798;28;20027;-65
2023/08/30 06:37:00;;;;;;;8.93;5.93;;;;;;;;;;4959104;28;20441;-65
2023/08/30 06:39:25;;;;;;;10.50;6.15;;;;;;;;;;4975747;28;20034;-65
2023/08/30 06:41:51;;;;;;;10.40;5.85;;;;;;;;;;4957572;28;20047;-65
2023/08/30 06:44:17;;;;;;;9.50;6.28;;;;;;;;;;4976666;28;20058;-65
2023/08/30 06:46:42;;;;;;;9.18;5.97;;;;;;;;;;4957565;28;20086;-65
2023/08/30 06:49:09;;;;;;;10.50;5.60;;;;;;;;;;4975912;28;20030;-65
2023/08/30 06:51:35;;;;;;;9.45;5.70;;;;;;;;;;4958879;28;20035;-65
2023/08/30 06:54:00;;;;;;;8.30;5.90;;;;;;;;;;4974281;28;20125;-65
2023/08/30 06:56:28;;;;;;;7.88;6.15;;;;;;;;;;4959794;28;20027;-65
2023/08/30 06:58:54;;;;;;;9.88;5.97;;;;;;;;;;4989814;28;20511;-65
2023/08/30 07:01:19;;;;;;;7.90;5.22;;;;;;;;;;4980089;28;20035;-65
2023/08/30 07:03:45;;;;;;;7.68;5.50;;;;;;;;;;4961138;28;20027;-65
2023/08/30 07:06:10;;;;;;;11.38;5.88;;;;;;;;;;4970984;28;20345;-65
2023/08/30 07:08:36;;;;;;;8.88;5.88;;;;;;;;;;4962317;28;20027;-65
2023/08/30 07:11:01;;;;;;;8.82;5.70;;;;;;;;;;4969439;28;20031;-65
2023/08/30 07:13:27;;;;;;;7.45;5.13;;;;;;;;;;4963295;28;20154;-65
2023/08/30 07:15:53;;;;;;;8.65;4.13;;;;;;;;;;4968732;28;20046;-65
2023/08/30 07:18:18;;;;;;;6.60;4.45;;;;;;;;;;4964804;28;20477;-65
2023/08/30 07:20:44;;;;;;;6.75;4.30;;;;;;;;;;4967462;28;20086;-65
2023/08/30 07:23:10;;;;;;;5.93;3.53;;;;;;;;;;4961983;28;20028;-65
2023/08/30 07:25:37;;;;;;;6.65;3.97;;;;;;;;;;4970079;28;20182;-65
2023/08/30 07:28:03;;;;;;;6.63;3.63;;;;;;;;;;4962470;28;20032;-65
2023/08/30 07:30:29;;;;;;;5.90;3.40;;;;;;;;;;4968972;28;20137;-65
2023/08/30 07:32:54;;;;;;;6.30;3.35;;;;;;;;;;4963971;28;20026;-65
2023/08/30 07:35:20;;;;;;;7.65;3.83;;;;;;;;;;4967691;28;20480;-65
2023/08/30 07:37:45;;;;;;;6.03;3.83;;;;;;;;;;4986339;28;20033;-65
2023/08/30 07:40:11;;;;;;;6.18;4.13;;;;;;;;;;4985129;28;20121;-65
2023/08/30 07:42:37;;;;;;;5.57;3.08;;;;;;;;;;4961487;28;20114;-65
2023/08/30 07:45:04;;;;;;;7.43;4.45;;;;;;;;;;4969350;28;20118;-65
2023/08/30 07:47:29;;;;;;;7.25;4.22;;;;;;;;;;4963109;28;20520;-65
2023/08/30 07:49:55;;;;;;;5.82;3.67;;;;;;;;;;4972092;28;20122;-65
2023/08/30 07:52:20;;;;;;;9.75;4.43;;;;;;;;;;4960494;28;20020;-65
2023/08/30 07:54:45;;;;;;;11.90;5.30;;;;;;;;;;4970454;28;20062;-65
2023/08/30 07:57:11;;;;;;;8.07;4.80;;;;;;;;;;4955954;28;20035;-65
2023/08/30 07:59:37;;;;;;;8.38;4.50;;;;;;;;;;4973295;28;20478;-65
2023/08/30 08:02:03;;;;;;;10.60;5.05;;;;;;;;;;4958757;28;20057;-65
2023/08/30 08:04:29;;;;;;;6.78;4.57;;;;;;;;;;4972212;28;20038;-65
2023/08/30 08:06:55;;;;;;;7.85;5.38;;;;;;;;;;4959697;28;20082;-65
2023/08/30 08:09:21;;;;;;;7.03;5.07;;;;;;;;;;4970497;28;20027;-65
2023/08/30 08:11:48;;;;;;;9.05;4.75;;;;;;;;;;4960375;28;20473;-64
2023/08/30 08:14:14;;;;;;;8.05;4.65;;;;;;;;;;4969668;28;20062;-65
2023/08/30 08:16:39;;;;;;;6.45;4.47;;;;;;;;;;4988569;28;20034;-65
2023/08/30 08:19:06;;;;;;;5.90;4.43;;;;;;;;;;4981713;28;20443;-65
2023/08/30 08:21:31;;;;;;;6.18;3.92;;;;;;;;;;4962763;28;20043;-65
2023/08/30 08:23:56;;;;;;;5.20;3.25;;;;;;;;;;4967259;28;20338;-65
2023/08/30 08:26:22;;;;;;;5.68;4.10;;;;;;;;;;4963854;28;20034;-65
2023/08/30 08:28:47;;;;;;;8.45;3.60;;;;;;;;;;4965810;28;20039;-64
2023/08/30 08:31:13;;;;;;;5.38;4.03;;;;;;;;;;4965161;28;20031;-65
2023/08/30 08:33:39;;;;;;;3.90;2.95;;;;;;;;;;4970241;28;20122;-65
2023/08/30 08:36:05;;;;;;;4.35;2.90;;;;;;;;;;4964019;28;20030;-65
2023/08/30 08:38:30;;;;;;;8.13;3.92;;;;;;;;;;4966727;28;20038;-65
2023/08/30 08:41:03;;;;;;;6.28;3.67;;;;;;;;;;4962203;28;20114;-65
2023/08/30 08:43:29;;;;;;;7.20;3.17;;;;;;;;;;4967168;28;20479;-65
2023/08/30 08:46:01;;;;;;;5.40;3.85;;;;;;;;;;4962304;28;20039;-65
2023/08/30 08:48:29;;;;;;;6.50;3.80;;;;;;;;;;4967371;28;20374;-65
2023/08/30 08:50:56;;;;;;;7.32;3.80;;;;;;;;;;4961643;28;20114;-65
2023/08/30 08:53:22;;;;;;;5.20;3.40;;;;;;;;;;4980657;28;20053;-65
2023/08/30 08:55:49;;;;;;;5.38;3.55;;;;;;;;;;4987412;28;20445;-65
2023/08/30 08:58:15;;;;;;;8.00;3.55;;;;;;;;;;4968868;28;20132;-65
2023/08/30 09:00:42;;;;;;;8.90;4.10;;;;;;;;;;4960221;28;20039;-65
2023/08/30 09:03:08;;;;;;;6.70;3.38;;;;;;;;;;4969821;28;20365;-65
2023/08/30 09:05:37;;;;;;;8.88;4.50;;;;;;;;;;4958787;28;20035;-65
2023/08/30 09:08:04;;;;;;;6.45;3.28;;;;;;;;;;4970137;28;20118;-65
2023/08/30 09:10:32;;;;;;;6.30;3.15;;;;;;;;;;4958052;28;20065;-65
2023/08/30 09:12:58;;;;;;;8.85;3.50;;;;;;;;;;4971018;28;20043;-65
2023/08/30 09:15:33;;;;;;;5.65;3.47;;;;;;;;;;4957054;28;20103;-65
2023/08/30 09:17:59;;;;;;;4.82;3.25;;;;;;;;;;4970809;28;20031;-66
2023/08/30 09:20:24;;;;;;;6.53;3.28;;;;;;;;;;4957231;28;20106;-65
2023/08/30 09:22:50;;;;;;;7.22;3.00;;;;;;;;;;4972156;28;20023;-65
2023/08/30 09:25:28;;;;;;;5.13;3.17;;;;;;;;;;4955742;28;20030;-65
2023/08/30 09:28:03;;;;;;;6.93;3.10;;;;;;;;;;4971507;28;20038;-65
2023/08/30 09:30:29;;;;;;;6.05;3.70;;;;;;;;;;4960394;28;20475;-65
2023/08/30 09:33:00;;;;;;;6.43;3.33;;;;;;;;;;4990937;28;20487;-65
2023/08/30 09:35:26;;;;;;;6.28;3.17;;;;;;;;;;4970998;28;20030;-65
2023/08/30 09:37:52;;;;;;;9.75;2.80;;;;;;;;;;4955974;28;20077;-65
2023/08/30 09:40:21;;;;;;;10.68;3.10;;;;;;;;;;4972377;28;20025;-65
2023/08/30 09:42:47;;;;;;;5.10;2.95;;;;;;;;;;4970362;28;20413;-65
2023/08/30 09:45:22;;;;;;;4.13;2.70;;;;;;;;;;4972800;28;20027;-65
2023/08/30 09:47:51;;;;;;;8.90;3.30;;;;;;;;;;4955108;28;20054;-65
2023/08/30 09:50:21;;;;;;;5.60;2.60;;;;;;;;;;4972331;28;20473;-65
2023/08/30 09:52:48;;;;;;;5.80;3.17;;;;;;;;;;4955000;28;20404;-65
2023/08/30 09:55:15;;;;;;;8.68;2.95;;;;;;;;;;4972799;28;20023;-65
2023/08/30 09:57:43;;;;;;;7.57;3.13;;;;;;;;;;4954284;28;20027;-65
2023/08/30 10:00:12;;;;;;;7.93;3.38;;;;;;;;;;4973412;28;20100;-65
2023/08/30 10:02:41;;;;;;;4.30;2.25;;;;;;;;;;4954274;29;20134;-65
2023/08/30 10:05:08;;;;;;;5.78;2.58;;;;;;;;;;4954190;28;20027;-65
2023/08/30 10:07:38;;;;;;;6.80;2.97;;;;;;;;;;4972978;28;20057;-65
2023/08/30 10:10:04;;;;;;;6.50;3.03;;;;;;;;;;4992488;28;20030;-65
2023/08/30 10:12:32;;;;;;;9.93;3.67;;;;;;;;;;4974129;28;20038;-65
2023/08/30 10:14:58;;;;;;;12.07;3.83;;;;;;;;;;4955093;28;20059;-65
2023/08/30 10:17:28;;;;;;;8.52;3.60;;;;;;;;;;4971499;28;20065;-65
2023/08/30 10:19:55;;;;;;;7.07;3.33;;;;;;;;;;4955708;28;20031;-65
2023/08/30 10:22:21;;;;;;;9.93;3.30;;;;;;;;;;4970897;28;20031;-65
2023/08/30 10:24:52;;;;;;;4.65;2.78;;;;;;;;;;4956381;28;20039;-65
2023/08/30 10:27:19;;;;;;;5.38;2.35;;;;;;;;;;4970289;28;20026;-65
2023/08/30 10:29:46;;;;;;;5.07;1.80;;;;;;;;;;4956620;28;20177;-65
2023/08/30 10:32:12;;;;;;;6.70;2.28;;;;;;;;;;4969870;28;20109;-65
2023/08/30 10:34:37;;;;;;;3.78;2.30;;;;;;;;;;4957962;28;20063;-65
2023/08/30 10:37:06;;;;;;;5.10;2.70;;;;;;;;;;4968114;28;20555;-65
2023/08/30 10:39:40;;;;;;;7.03;2.63;;;;;;;;;;4954699;28;20114;-65
2023/08/30 10:42:13;;;;;;;5.05;2.50;;;;;;;;;;4972907;28;20101;-65
2023/08/30 10:45:06;;;;;;;8.35;2.20;;;;;;;;;;4953630;28;20118;-65
2023/08/30 10:47:35;;;;;;;3.40;1.80;;;;;;;;;;4959016;28;20126;-65
2023/08/30 10:50:06;;;;;;;4.17;2.10;;;;;;;;;;4993986;28;20109;-65
2023/08/30 10:52:32;;;;;;;5.05;2.78;;;;;;;;;;4974533;28;20257;-65
2023/08/30 10:55:17;;;;;;;6.35;2.33;;;;;;;;;;4959066;28;20046;-65
2023/08/30 10:57:44;;;;;;;4.82;2.58;;;;;;;;;;4973305;28;20050;-65
2023/08/30 11:00:20;;;;;;;6.93;2.70;;;;;;;;;;4960258;28;20026;-65
2023/08/30 11:02:50;;;;;;;9.45;3.38;;;;;;;;;;4972593;28;20039;-65
2023/08/30 11:05:17;;;;;;;9.65;2.47;;;;;;;;;;4960804;28;20488;-65
2023/08/30 11:07:43;;;;;;;7.18;2.95;;;;;;;;;;4968248;28;20031;-65
2023/08/30 11:10:09;;;;;;;5.40;2.40;;;;;;;;;;4963520;28;20027;-65
2023/08/30 11:12:35;;;;;;;6.15;2.35;;;;;;;;;;4969762;28;20446;-65
2023/08/30 11:15:02;;;;;;;4.72;2.05;;;;;;;;;;4962734;28;20125;-65
2023/08/30 11:17:28;;;;;;;6.55;2.22;;;;;;;;;;4970971;28;20027;-65
2023/08/30 11:20:07;;;;;;;7.47;2.28;;;;;;;;;;4961279;28;20078;-65
2023/08/30 11:22:34;;;;;;;4.93;2.13;;;;;;;;;;4970583;28;20102;-65
2023/08/30 11:25:00;;;;;;;5.43;1.90;;;;;;;;;;4962202;28;20364;-65
2023/08/30 11:27:25;;;;;;;3.95;1.95;;;;;;;;;;4980988;28;20018;-65
2023/08/30 11:29:51;;;;;;;8.32;2.00;;;;;;;;;;4991289;28;20030;-65
2023/08/30 11:32:16;;;;;;;6.68;1.77;;;;;;;;;;4972409;28;20106;-65
2023/08/30 11:34:42;;;;;;;2.75;1.73;;;;;;;;;;4959543;28;20499;-65
2023/08/30 11:37:08;;;;;;;4.32;1.55;;;;;;;;;;4973650;28;20031;-65
2023/08/30 11:39:33;;;;;;;3.72;1.60;;;;;;;;;;4958075;28;20396;-65
2023/08/30 11:41:59;;;;;;;3.15;1.45;;;;;;;;;;4974900;28;20122;-65
2023/08/30 11:44:28;;;;;;;5.95;2.35;;;;;;;;;;4961180;28;20082;-65
2023/08/30 11:47:00;;;;;;;2.58;1.60;;;;;;;;;;4971442;28;20393;-65
2023/08/30 11:49:26;;;;;;;3.47;1.20;;;;;;;;;;4960858;28;20027;-66
2023/08/30 11:51:52;;;;;;;5.43;1.40;;;;;;;;;;4971732;28;20027;-65
2023/08/30 11:54:20;;;;;;;5.80;2.88;;;;;;;;;;4959981;28;20117;-65
2023/08/30 11:56:45;;;;;;;3.70;1.70;;;;;;;;;;4971623;28;20549;-65
2023/08/30 11:59:29;;;;;;;4.43;1.70;;;;;;;;;;4958900;28;20061;-65
2023/08/30 12:01:55;;;;;;;2.80;1.40;;;;;;;;;;4971439;28;20075;-65
2023/08/30 12:04:20;;;;;;;2.50;1.35;;;;;;;;;;4959897;28;20062;-65
2023/08/30 12:06:53;;;;;;;3.75;1.35;;;;;;;;;;4978505;28;20022;-65
2023/08/30 12:09:21;;;;;;;4.43;1.60;;;;;;;;;;4991285;28;20125;-65
2023/08/30 12:11:48;;;;;;;5.95;1.50;;;;;;;;;;4972273;28;20078;-65
2023/08/30 12:14:13;;;;;;;2.33;1.08;;;;;;;;;;4958469;28;20043;-65
2023/08/30 12:16:40;;;;;;;1.90;0.93;;;;;;;;;;4973135;28;20041;-65
2023/08/30 12:19:15;;;;;;;5.13;1.40;;;;;;;;;;4957268;28;20106;-65
2023/08/30 12:21:44;;;;;;;4.32;1.30;;;;;;;;;;4972933;28;20089;-65
2023/08/30 12:24:10;;;;;;;2.40;1.30;;;;;;;;;;4957680;28;20022;-65
2023/08/30 12:26:38;;;;;;;4.25;1.30;;;;;;;;;;4973563;28;20559;-65
2023/08/30 12:29:05;;;;;;;4.60;1.20;;;;;;;;;;4956842;28;20031;-65
2023/08/30 12:31:31;;;;;;;6.05;1.20;;;;;;;;;;4973792;28;20428;-65
2023/08/30 12:33:57;;;;;;;2.63;1.23;;;;;;;;;;4955731;28;20114;-65
2023/08/30 12:36:22;;;;;;;4.35;1.20;;;;;;;;;;4974976;28;20116;-65
2023/08/30 12:38:48;;;;;;;2.72;1.17;;;;;;;;;;4955790;28;20028;-65
2023/08/30 12:41:13;;;;;;;3.70;1.10;;;;;;;;;;4973610;28;20026;-65
2023/08/30 12:43:40;;;;;;;2.25;1.13;;;;;;;;;;4956764;28;20051;-65
2023/08/30 12:46:07;;;;;;;3.10;1.60;;;;;;;;;;4989030;28;20034;-65
2023/08/30 12:48:32;;;;;;;3.20;1.30;;;;;;;;;;4977210;28;20115;-65
2023/08/30 12:50:57;;;;;;;2.72;1.38;;;;;;;;;;4958532;28;20050;-65
2023/08/30 12:53:23;;;;;;;2.60;1.23;;;;;;;;;;4970628;28;20038;-65
2023/08/30 12:55:48;;;;;;;4.35;1.27;;;;;;;;;;4959789;28;20027;-65
2023/08/30 12:58:14;;;;;;;3.80;1.33;;;;;;;;;;4969128;28;20054;-65
2023/08/30 13:00:40;;;;;;;5.35;1.33;;;;;;;;;;4960191;28;20070;-65
2023/08/30 13:03:05;;;;;;;4.10;1.20;;;;;;;;;;4971783;28;20084;-65
2023/08/30 13:05:32;;;;;;;2.42;1.20;;;;;;;;;;4958076;28;20050;-65
2023/08/30 13:07:58;;;;;;;5.00;1.35;;;;;;;;;;4973953;28;20019;-65
2023/08/30 13:10:23;;;;;;;3.45;1.30;;;;;;;;;;4954739;28;20055;-65
2023/08/30 13:12:49;;;;;;;2.25;1.08;;;;;;;;;;4973058;28;20050;-65
2023/08/30 13:15:14;;;;;;;1.80;1.05;;;;;;;;;;4955773;28;20194;-65
2023/08/30 13:17:40;;;;;;;4.80;1.20;;;;;;;;;;4970758;28;20490;-65
2023/08/30 13:20:06;;;;;;;2.65;1.20;;;;;;;;;;4955401;28;20031;-65
2023/08/30 13:22:31;;;;;;;2.63;1.10;;;;;;;;;;4974027;28;20045;-65
2023/08/30 13:24:56;;;;;;;9.35;1.40;;;;;;;;;;4989865;28;20061;-65
2023/08/30 13:27:22;;;;;;;8.45;1.40;;;;;;;;;;4971074;28;20027;-65
2023/08/30 13:29:48;;;;;;;3.72;1.40;;;;;;;;;;4956566;28;20051;-65
2023/08/30 13:32:13;;;;;;;2.88;1.08;;;;;;;;;;4972563;28;20091;-65
2023/08/30 13:34:39;;;;;;;4.47;1.45;;;;;;;;;;4955411;28;20118;-65
2023/08/30 13:37:04;;;;;;;4.00;1.20;;;;;;;;;;4973426;28;20430;-65
2023/08/30 13:39:30;;;;;;;2.65;1.10;;;;;;;;;;4954389;29;20046;-65
2023/08/30 13:41:55;;;;;;;1.40;0.90;;;;;;;;;;4973648;28;20023;-65
2023/08/30 13:44:21;;;;;;;3.33;1.20;;;;;;;;;;4954960;28;20426;-65
2023/08/30 13:46:49;;;;;;;2.95;0.93;;;;;;;;;;4972153;28;20388;-65
2023/08/30 13:49:15;;;;;;;2.75;1.05;;;;;;;;;;4956875;28;20055;-65
2023/08/30 13:51:41;;;;;;;3.47;1.30;;;;;;;;;;4971384;28;20027;-65
2023/08/30 13:54:07;;;;;;;8.98;1.48;;;;;;;;;;4954652;28;20093;-65
2023/08/30 13:56:32;;;;;;;2.55;1.08;;;;;;;;;;4973658;28;20108;-65
2023/08/30 13:58:58;;;;;;;2.22;1.20;;;;;;;;;;4954253;28;20473;-65
2023/08/30 14:01:23;;;;;;;5.28;1.15;;;;;;;;;;4972636;28;20034;-65
2023/08/30 14:03:49;;;;;;;4.40;1.17;;;;;;;;;;4991342;28;20054;-65
2023/08/30 14:06:14;;;;;;;3.42;0.90;;;;;;;;;;4975479;28;20041;-65
2023/08/30 14:08:40;;;;;;;5.65;1.23;;;;;;;;;;4956851;28;20408;-65
2023/08/30 14:11:05;;;;;;;2.95;1.10;;;;;;;;;;4969819;28;20400;-65
2023/08/30 14:13:32;;;;;;;2.67;1.20;;;;;;;;;;4953865;29;20102;-65
2023/08/30 14:16:03;;;;;;;3.13;1.05;;;;;;;;;;4972967;28;20035;-65
2023/08/30 14:18:28;;;;;;;2.65;1.10;;;;;;;;;;4954508;28;20090;-65
2023/08/30 14:20:58;;;;;;;3.30;1.00;;;;;;;;;;4974974;28;20035;-65
2023/08/30 14:23:27;;;;;;;3.00;1.10;;;;;;;;;;4958925;28;20031;-65
2023/08/30 14:26:19;;;;;;;2.33;0.98;;;;;;;;;;4975406;28;20035;-65
2023/08/30 14:28:44;;;;;;;2.70;1.00;;;;;;;;;;4955694;28;20043;-65
2023/08/30 14:31:10;;;;;;;2.35;1.02;;;;;;;;;;4976840;28;20110;-65
2023/08/30 14:33:37;;;;;;;4.13;1.20;;;;;;;;;;4957907;29;20539;-65
2023/08/30 14:36:03;;;;;;;5.22;1.20;;;;;;;;;;4976895;28;20042;-66
2023/08/30 14:38:28;;;;;;;5.55;1.25;;;;;;;;;;4958358;28;20127;-65
2023/08/30 14:40:55;;;;;;;2.63;1.25;;;;;;;;;;4975739;28;20030;-66